sensor_id;sensor_type;location;lat;lon;timestamp;temperature;humidity
21348;DHT22;66030;53.582;9.746;2024-03-02T00:02:02;19.30;58.30
21348;DHT22;66030;53.582;9.746;2024-03-02T00:04:30;19.30;58.30
21348;DHT22;66030;53.582;9.746;2024-03-02T00:06:59;19.20;58.30
21348;DHT22;66030;53.582;9.746;2024-03-02T00:09:27;19.20;58.30
21348;DHT22;66030;53.582;9.746;2024-03-02T00:11:55;19.20;58.30
21348;DHT22;66030;53.582;9.746;2024-03-02T00:14:23;19.10;58.50
21348;DHT22;66030;53.582;9.746;2024-03-02T00:16:51;19.10;58.50
21348;DHT22;66030;53.582;9.746;2024-03-02T00:19:20;19.00;58.60
21348;DHT22;66030;53.582;9.746;2024-03-02T00:21:48;19.10;58.60
21348;DHT22;66030;53.582;9.746;2024-03-02T00:24:21;19.00;58.70
21348;DHT22;66030;53.582;9.746;2024-03-02T00:26:49;19.00;58.80
21348;DHT22;66030;53.582;9.746;2024-03-02T00:29:18;19.00;58.80
21348;DHT22;66030;53.582;9.746;2024-03-02T00:31:50;18.90;58.90
21348;DHT22;66030;53.582;9.746;2024-03-02T00:34:18;18.90;58.90
21348;DHT22;66030;53.582;9.746;2024-03-02T00:36:46;18.90;58.90
21348;DHT22;66030;53.582;9.746;2024-03-02T00:39:15;18.90;58.90
21348;DHT22;66030;53.582;9.746;2024-03-02T00:41:46;18.90;59.00
21348;DHT22;66030;53.582;9.746;2024-03-02T00:44:15;18.90;59.00
21348;DHT22;66030;53.582;9.746;2024-03-02T00:46:44;18.80;59.00
21348;DHT22;66030;53.582;9.746;2024-03-02T00:49:18;18.80;59.00
21348;DHT22;66030;53.582;9.746;2024-03-02T00:51:48;18.80;59.10
21348;DHT22;66030;53.582;9.746;2024-03-02T00:54:19;18.80;59.10
21348;DHT22;66030;53.582;9.746;2024-03-02T00:56:49;18.70;59.10
21348;DHT22;66030;53.582;9.746;2024-03-02T00:59:17;18.70;59.20
21348;DHT22;66030;53.582;9.746;2024-03-02T01:01:45;18.70;59.20
21348;DHT22;66030;53.582;9.746;2024-03-02T01:04:13;18.70;59.20
21348;DHT22;66030;53.582;9.746;2024-03-02T01:06:42;18.70;59.20
21348;DHT22;66030;53.582;9.746;2024-03-02T01:09:10;18.70;59.20
21348;DHT22;66030;53.582;9.746;2024-03-02T01:11:39;18.60;59.30
21348;DHT22;66030;53.582;9.746;2024-03-02T01:14:08;18.70;59.20
21348;DHT22;66030;53.582;9.746;2024-03-02T01:16:37;18.70;59.20
21348;DHT22;66030;53.582;9.746;2024-03-02T01:19:04;18.60;59.20
21348;DHT22;66030;53.582;9.746;2024-03-02T01:21:32;18.60;59.30
21348;DHT22;66030;53.582;9.746;2024-03-02T01:24:00;18.60;59.50
21348;DHT22;66030;53.582;9.746;2024-03-02T01:26:28;18.60;59.40
21348;DHT22;66030;53.582;9.746;2024-03-02T01:28:57;18.60;59.40
21348;DHT22;66030;53.582;9.746;2024-03-02T01:31:26;18.50;59.40
21348;DHT22;66030;53.582;9.746;2024-03-02T01:33:54;18.50;59.40
21348;DHT22;66030;53.582;9.746;2024-03-02T01:36:22;18.50;59.40
21348;DHT22;66030;53.582;9.746;2024-03-02T01:38:50;18.50;59.40
21348;DHT22;66030;53.582;9.746;2024-03-02T01:41:18;18.50;59.50
21348;DHT22;66030;53.582;9.746;2024-03-02T01:43:46;18.50;59.50
21348;DHT22;66030;53.582;9.746;2024-03-02T01:46:14;18.40;59.50
21348;DHT22;66030;53.582;9.746;2024-03-02T01:48:43;18.40;59.60
21348;DHT22;66030;53.582;9.746;2024-03-02T01:51:11;18.40;59.60
21348;DHT22;66030;53.582;9.746;2024-03-02T01:53:39;18.40;59.70
21348;DHT22;66030;53.582;9.746;2024-03-02T01:56:07;18.40;59.60
21348;DHT22;66030;53.582;9.746;2024-03-02T01:58:35;18.40;59.70
21348;DHT22;66030;53.582;9.746;2024-03-02T02:01:03;18.40;59.70
21348;DHT22;66030;53.582;9.746;2024-03-02T02:03:31;18.40;59.80
21348;DHT22;66030;53.582;9.746;2024-03-02T02:06:00;18.40;59.70
21348;DHT22;66030;53.582;9.746;2024-03-02T02:08:28;18.40;59.80
21348;DHT22;66030;53.582;9.746;2024-03-02T02:10:56;18.30;59.80
21348;DHT22;66030;53.582;9.746;2024-03-02T02:13:24;18.30;59.80
21348;DHT22;66030;53.582;9.746;2024-03-02T02:15:52;18.30;59.80
21348;DHT22;66030;53.582;9.746;2024-03-02T02:18:20;18.30;59.80
21348;DHT22;66030;53.582;9.746;2024-03-02T02:20:48;18.30;59.90
21348;DHT22;66030;53.582;9.746;2024-03-02T02:23:17;18.30;59.90
21348;DHT22;66030;53.582;9.746;2024-03-02T02:25:45;18.30;59.90
21348;DHT22;66030;53.582;9.746;2024-03-02T02:28:13;18.30;59.90
21348;DHT22;66030;53.582;9.746;2024-03-02T02:30:41;18.30;59.90
21348;DHT22;66030;53.582;9.746;2024-03-02T02:33:09;18.20;60.00
21348;DHT22;66030;53.582;9.746;2024-03-02T02:35:37;18.20;60.00
21348;DHT22;66030;53.582;9.746;2024-03-02T02:38:05;18.20;60.00
21348;DHT22;66030;53.582;9.746;2024-03-02T02:40:34;18.20;60.00
21348;DHT22;66030;53.582;9.746;2024-03-02T02:43:03;18.20;60.00
21348;DHT22;66030;53.582;9.746;2024-03-02T02:45:31;18.20;60.00
21348;DHT22;66030;53.582;9.746;2024-03-02T02:47:59;18.20;60.10
21348;DHT22;66030;53.582;9.746;2024-03-02T02:50:28;18.20;60.10
21348;DHT22;66030;53.582;9.746;2024-03-02T02:52:56;18.20;60.10
21348;DHT22;66030;53.582;9.746;2024-03-02T02:55:24;18.10;60.10
21348;DHT22;66030;53.582;9.746;2024-03-02T02:57:53;18.10;60.10
21348;DHT22;66030;53.582;9.746;2024-03-02T03:00:21;18.10;60.10
21348;DHT22;66030;53.582;9.746;2024-03-02T03:02:49;18.10;60.20
21348;DHT22;66030;53.582;9.746;2024-03-02T03:05:18;18.10;60.20
21348;DHT22;66030;53.582;9.746;2024-03-02T03:07:46;18.10;60.20
21348;DHT22;66030;53.582;9.746;2024-03-02T03:10:17;18.10;60.20
21348;DHT22;66030;53.582;9.746;2024-03-02T03:12:45;18.10;60.20
21348;DHT22;66030;53.582;9.746;2024-03-02T03:15:14;18.10;60.20
21348;DHT22;66030;53.582;9.746;2024-03-02T03:17:43;18.10;60.20
21348;DHT22;66030;53.582;9.746;2024-03-02T03:20:12;18.10;60.20
21348;DHT22;66030;53.582;9.746;2024-03-02T03:22:42;18.10;60.20
21348;DHT22;66030;53.582;9.746;2024-03-02T03:25:10;18.10;60.30
21348;DHT22;66030;53.582;9.746;2024-03-02T03:27:39;18.00;60.30
21348;DHT22;66030;53.582;9.746;2024-03-02T03:30:09;18.00;60.30
21348;DHT22;66030;53.582;9.746;2024-03-02T03:32:38;18.00;60.30
21348;DHT22;66030;53.582;9.746;2024-03-02T03:35:07;18.00;60.30
21348;DHT22;66030;53.582;9.746;2024-03-02T03:37:35;18.00;60.40
21348;DHT22;66030;53.582;9.746;2024-03-02T03:40:04;18.00;60.40
21348;DHT22;66030;53.582;9.746;2024-03-02T03:42:37;18.00;60.40
21348;DHT22;66030;53.582;9.746;2024-03-02T03:45:06;18.00;60.40
21348;DHT22;66030;53.582;9.746;2024-03-02T03:47:34;18.00;60.40
21348;DHT22;66030;53.582;9.746;2024-03-02T03:50:05;18.00;60.40
21348;DHT22;66030;53.582;9.746;2024-03-02T03:52:34;17.90;60.50
21348;DHT22;66030;53.582;9.746;2024-03-02T03:55:02;17.90;60.50
21348;DHT22;66030;53.582;9.746;2024-03-02T03:57:32;17.90;60.50
21348;DHT22;66030;53.582;9.746;2024-03-02T04:00:00;17.90;60.50
21348;DHT22;66030;53.582;9.746;2024-03-02T04:02:28;17.90;60.50
21348;DHT22;66030;53.582;9.746;2024-03-02T04:04:55;17.90;60.50
21348;DHT22;66030;53.582;9.746;2024-03-02T04:07:25;17.90;60.50
21348;DHT22;66030;53.582;9.746;2024-03-02T04:09:52;17.90;60.60
21348;DHT22;66030;53.582;9.746;2024-03-02T04:12:20;17.90;60.60
21348;DHT22;66030;53.582;9.746;2024-03-02T04:14:49;17.90;60.60
21348;DHT22;66030;53.582;9.746;2024-03-02T04:17:17;17.90;60.50
21348;DHT22;66030;53.582;9.746;2024-03-02T04:19:44;17.90;60.60
21348;DHT22;66030;53.582;9.746;2024-03-02T04:22:12;17.90;60.70
21348;DHT22;66030;53.582;9.746;2024-03-02T04:24:51;17.90;60.60
21348;DHT22;66030;53.582;9.746;2024-03-02T04:27:19;17.90;60.70
21348;DHT22;66030;53.582;9.746;2024-03-02T04:29:47;17.80;60.60
21348;DHT22;66030;53.582;9.746;2024-03-02T04:32:15;17.80;60.60
21348;DHT22;66030;53.582;9.746;2024-03-02T04:34:44;17.80;60.60
21348;DHT22;66030;53.582;9.746;2024-03-02T04:37:11;17.90;60.60
21348;DHT22;66030;53.582;9.746;2024-03-02T04:39:41;17.80;60.60
21348;DHT22;66030;53.582;9.746;2024-03-02T04:42:10;17.80;60.60
21348;DHT22;66030;53.582;9.746;2024-03-02T04:44:38;17.80;60.60
21348;DHT22;66030;53.582;9.746;2024-03-02T04:47:06;17.80;60.60
21348;DHT22;66030;53.582;9.746;2024-03-02T04:49:33;17.80;60.60
21348;DHT22;66030;53.582;9.746;2024-03-02T04:52:02;17.80;60.70
21348;DHT22;66030;53.582;9.746;2024-03-02T04:54:30;17.80;60.70
21348;DHT22;66030;53.582;9.746;2024-03-02T04:56:58;17.80;60.70
21348;DHT22;66030;53.582;9.746;2024-03-02T04:59:27;17.80;60.50
21348;DHT22;66030;53.582;9.746;2024-03-02T05:01:55;17.80;60.70
21348;DHT22;66030;53.582;9.746;2024-03-02T05:04:22;17.80;60.70
21348;DHT22;66030;53.582;9.746;2024-03-02T05:06:50;17.70;60.70
21348;DHT22;66030;53.582;9.746;2024-03-02T05:09:21;17.80;60.70
21348;DHT22;66030;53.582;9.746;2024-03-02T05:11:49;17.80;60.70
21348;DHT22;66030;53.582;9.746;2024-03-02T05:14:36;17.80;60.70
21348;DHT22;66030;53.582;9.746;2024-03-02T05:17:04;17.80;60.70
21348;DHT22;66030;53.582;9.746;2024-03-02T05:19:32;17.70;60.70
21348;DHT22;66030;53.582;9.746;2024-03-02T05:21:59;17.70;60.80
21348;DHT22;66030;53.582;9.746;2024-03-02T05:24:27;17.70;60.80
21348;DHT22;66030;53.582;9.746;2024-03-02T05:26:55;17.70;60.90
21348;DHT22;66030;53.582;9.746;2024-03-02T05:29:23;17.70;60.90
21348;DHT22;66030;53.582;9.746;2024-03-02T05:31:53;17.70;60.80
21348;DHT22;66030;53.582;9.746;2024-03-02T05:34:21;17.70;60.90
21348;DHT22;66030;53.582;9.746;2024-03-02T05:36:49;17.70;60.90
21348;DHT22;66030;53.582;9.746;2024-03-02T05:39:17;17.70;61.00
21348;DHT22;66030;53.582;9.746;2024-03-02T05:41:44;17.70;61.00
21348;DHT22;66030;53.582;9.746;2024-03-02T05:44:12;17.70;61.00
21348;DHT22;66030;53.582;9.746;2024-03-02T05:46:44;17.70;61.00
21348;DHT22;66030;53.582;9.746;2024-03-02T05:49:14;17.70;60.90
21348;DHT22;66030;53.582;9.746;2024-03-02T05:51:42;17.70;60.90
21348;DHT22;66030;53.582;9.746;2024-03-02T05:54:10;17.70;60.90
21348;DHT22;66030;53.582;9.746;2024-03-02T05:56:38;17.70;60.90
21348;DHT22;66030;53.582;9.746;2024-03-02T05:59:05;17.80;60.90
21348;DHT22;66030;53.582;9.746;2024-03-02T06:01:39;17.90;60.80
21348;DHT22;66030;53.582;9.746;2024-03-02T06:04:07;18.00;60.70
21348;DHT22;66030;53.582;9.746;2024-03-02T06:06:37;18.10;60.50
21348;DHT22;66030;53.582;9.746;2024-03-02T06:09:06;18.20;60.30
21348;DHT22;66030;53.582;9.746;2024-03-02T06:11:34;18.20;60.10
21348;DHT22;66030;53.582;9.746;2024-03-02T06:14:03;18.30;60.00
21348;DHT22;66030;53.582;9.746;2024-03-02T06:16:31;18.40;59.80
21348;DHT22;66030;53.582;9.746;2024-03-02T06:18:59;18.50;59.80
21348;DHT22;66030;53.582;9.746;2024-03-02T06:21:28;18.50;59.60
21348;DHT22;66030;53.582;9.746;2024-03-02T06:23:57;18.60;59.50
21348;DHT22;66030;53.582;9.746;2024-03-02T06:26:25;18.60;59.60
21348;DHT22;66030;53.582;9.746;2024-03-02T06:28:53;18.70;59.50
21348;DHT22;66030;53.582;9.746;2024-03-02T06:31:21;18.80;59.50
21348;DHT22;66030;53.582;9.746;2024-03-02T06:33:49;18.80;59.40
21348;DHT22;66030;53.582;9.746;2024-03-02T06:36:16;18.90;59.50
21348;DHT22;66030;53.582;9.746;2024-03-02T06:38:44;18.90;59.60
21348;DHT22;66030;53.582;9.746;2024-03-02T06:41:13;18.90;59.50
21348;DHT22;66030;53.582;9.746;2024-03-02T06:43:41;18.90;59.40
21348;DHT22;66030;53.582;9.746;2024-03-02T06:46:09;19.00;59.30
21348;DHT22;66030;53.582;9.746;2024-03-02T06:48:41;19.00;59.30
21348;DHT22;66030;53.582;9.746;2024-03-02T06:51:09;19.00;59.20
21348;DHT22;66030;53.582;9.746;2024-03-02T06:53:37;19.00;59.20
21348;DHT22;66030;53.582;9.746;2024-03-02T06:56:07;19.00;59.20
21348;DHT22;66030;53.582;9.746;2024-03-02T06:58:37;19.00;59.20
21348;DHT22;66030;53.582;9.746;2024-03-02T07:01:05;19.00;59.20
21348;DHT22;66030;53.582;9.746;2024-03-02T07:03:34;19.00;59.10
21348;DHT22;66030;53.582;9.746;2024-03-02T07:06:02;18.90;59.20
21348;DHT22;66030;53.582;9.746;2024-03-02T07:08:30;19.00;59.10
21348;DHT22;66030;53.582;9.746;2024-03-02T07:10:57;19.00;59.10
21348;DHT22;66030;53.582;9.746;2024-03-02T07:13:26;19.00;59.10
21348;DHT22;66030;53.582;9.746;2024-03-02T07:15:55;19.00;59.10
21348;DHT22;66030;53.582;9.746;2024-03-02T07:18:49;19.00;59.20
21348;DHT22;66030;53.582;9.746;2024-03-02T07:21:18;19.00;59.40
21348;DHT22;66030;53.582;9.746;2024-03-02T07:23:46;19.00;59.30
21348;DHT22;66030;53.582;9.746;2024-03-02T07:26:14;19.00;59.50
21348;DHT22;66030;53.582;9.746;2024-03-02T07:28:46;19.00;59.50
21348;DHT22;66030;53.582;9.746;2024-03-02T07:31:16;19.00;59.50
21348;DHT22;66030;53.582;9.746;2024-03-02T07:33:44;19.00;59.50
21348;DHT22;66030;53.582;9.746;2024-03-02T07:36:13;19.00;59.50
21348;DHT22;66030;53.582;9.746;2024-03-02T07:38:42;19.10;59.50
21348;DHT22;66030;53.582;9.746;2024-03-02T07:41:12;19.00;59.50
21348;DHT22;66030;53.582;9.746;2024-03-02T07:43:40;19.10;59.50
21348;DHT22;66030;53.582;9.746;2024-03-02T07:46:08;19.10;59.60
21348;DHT22;66030;53.582;9.746;2024-03-02T07:48:37;19.10;59.70
21348;DHT22;66030;53.582;9.746;2024-03-02T07:51:05;19.10;60.30
21348;DHT22;66030;53.582;9.746;2024-03-02T07:53:33;19.20;61.40
21348;DHT22;66030;53.582;9.746;2024-03-02T07:56:03;19.20;62.00
21348;DHT22;66030;53.582;9.746;2024-03-02T07:58:32;19.20;62.40
21348;DHT22;66030;53.582;9.746;2024-03-02T08:01:02;19.30;62.80
21348;DHT22;66030;53.582;9.746;2024-03-02T08:03:30;19.30;63.10
21348;DHT22;66030;53.582;9.746;2024-03-02T08:06:03;19.30;63.20
21348;DHT22;66030;53.582;9.746;2024-03-02T08:08:32;19.30;63.40
21348;DHT22;66030;53.582;9.746;2024-03-02T08:11:01;19.40;63.40
21348;DHT22;66030;53.582;9.746;2024-03-02T08:13:29;19.40;63.50
21348;DHT22;66030;53.582;9.746;2024-03-02T08:15:57;19.40;63.30
21348;DHT22;66030;53.582;9.746;2024-03-02T08:18:25;19.40;63.20
21348;DHT22;66030;53.582;9.746;2024-03-02T08:20:53;19.40;63.20
21348;DHT22;66030;53.582;9.746;2024-03-02T08:23:22;19.40;63.00
21348;DHT22;66030;53.582;9.746;2024-03-02T08:25:50;19.50;62.90
21348;DHT22;66030;53.582;9.746;2024-03-02T08:28:18;19.50;62.90
21348;DHT22;66030;53.582;9.746;2024-03-02T08:30:46;19.50;62.70
21348;DHT22;66030;53.582;9.746;2024-03-02T08:33:14;19.50;62.40
21348;DHT22;66030;53.582;9.746;2024-03-02T08:35:42;19.50;62.30
21348;DHT22;66030;53.582;9.746;2024-03-02T08:38:10;19.60;62.20
21348;DHT22;66030;53.582;9.746;2024-03-02T08:40:40;19.60;62.60
21348;DHT22;66030;53.582;9.746;2024-03-02T08:43:08;19.60;62.90
21348;DHT22;66030;53.582;9.746;2024-03-02T08:45:36;19.60;62.70
21348;DHT22;66030;53.582;9.746;2024-03-02T08:48:07;19.60;62.50
21348;DHT22;66030;53.582;9.746;2024-03-02T08:50:37;19.60;62.60
21348;DHT22;66030;53.582;9.746;2024-03-02T08:53:04;19.60;62.40
21348;DHT22;66030;53.582;9.746;2024-03-02T08:55:32;19.70;62.30
21348;DHT22;66030;53.582;9.746;2024-03-02T08:58:01;19.70;62.10
21348;DHT22;66030;53.582;9.746;2024-03-02T09:00:30;19.70;62.10
21348;DHT22;66030;53.582;9.746;2024-03-02T09:02:58;19.80;61.90
21348;DHT22;66030;53.582;9.746;2024-03-02T09:05:26;19.80;62.00
21348;DHT22;66030;53.582;9.746;2024-03-02T09:07:54;19.80;61.80
21348;DHT22;66030;53.582;9.746;2024-03-02T09:10:22;19.80;61.70
21348;DHT22;66030;53.582;9.746;2024-03-02T09:12:54;19.80;61.60
21348;DHT22;66030;53.582;9.746;2024-03-02T09:15:23;19.80;61.60
21348;DHT22;66030;53.582;9.746;2024-03-02T09:17:51;19.90;61.60
21348;DHT22;66030;53.582;9.746;2024-03-02T09:20:20;19.90;61.50
21348;DHT22;66030;53.582;9.746;2024-03-02T09:22:48;20.00;61.50
21348;DHT22;66030;53.582;9.746;2024-03-02T09:25:16;20.00;61.20
21348;DHT22;66030;53.582;9.746;2024-03-02T09:27:44;20.10;61.00
21348;DHT22;66030;53.582;9.746;2024-03-02T09:30:12;20.10;60.70
21348;DHT22;66030;53.582;9.746;2024-03-02T09:32:42;19.90;57.80
21348;DHT22;66030;53.582;9.746;2024-03-02T09:35:12;19.60;57.60
21348;DHT22;66030;53.582;9.746;2024-03-02T09:37:40;19.40;57.10
21348;DHT22;66030;53.582;9.746;2024-03-02T09:40:09;19.30;58.00
21348;DHT22;66030;53.582;9.746;2024-03-02T09:42:37;19.30;58.10
21348;DHT22;66030;53.582;9.746;2024-03-02T09:45:06;19.40;57.90
21348;DHT22;66030;53.582;9.746;2024-03-02T09:47:34;19.40;57.70
21348;DHT22;66030;53.582;9.746;2024-03-02T09:50:04;19.50;57.40
21348;DHT22;66030;53.582;9.746;2024-03-02T09:52:33;19.50;57.10
21348;DHT22;66030;53.582;9.746;2024-03-02T09:55:01;19.60;56.90
21348;DHT22;66030;53.582;9.746;2024-03-02T09:57:32;19.50;56.50
21348;DHT22;66030;53.582;9.746;2024-03-02T10:00:01;19.50;56.70
21348;DHT22;66030;53.582;9.746;2024-03-02T10:02:29;19.50;56.30
21348;DHT22;66030;53.582;9.746;2024-03-02T10:04:57;19.50;56.10
21348;DHT22;66030;53.582;9.746;2024-03-02T10:07:27;19.50;56.40
21348;DHT22;66030;53.582;9.746;2024-03-02T10:09:55;19.50;56.20
21348;DHT22;66030;53.582;9.746;2024-03-02T10:12:23;19.50;56.50
21348;DHT22;66030;53.582;9.746;2024-03-02T10:15:03;19.60;56.20
21348;DHT22;66030;53.582;9.746;2024-03-02T10:17:34;19.60;56.40
21348;DHT22;66030;53.582;9.746;2024-03-02T10:20:23;19.60;56.50
21348;DHT22;66030;53.582;9.746;2024-03-02T10:22:52;19.70;56.20
21348;DHT22;66030;53.582;9.746;2024-03-02T10:25:30;19.70;56.80
21348;DHT22;66030;53.582;9.746;2024-03-02T10:28:16;19.70;56.60
21348;DHT22;66030;53.582;9.746;2024-03-02T10:30:47;19.70;56.40
21348;DHT22;66030;53.582;9.746;2024-03-02T10:33:17;19.70;57.10
21348;DHT22;66030;53.582;9.746;2024-03-02T10:35:45;19.80;57.30
21348;DHT22;66030;53.582;9.746;2024-03-02T10:38:17;19.90;57.30
21348;DHT22;66030;53.582;9.746;2024-03-02T10:40:47;19.90;57.40
21348;DHT22;66030;53.582;9.746;2024-03-02T10:43:15;19.90;56.80
21348;DHT22;66030;53.582;9.746;2024-03-02T10:45:44;19.90;57.00
21348;DHT22;66030;53.582;9.746;2024-03-02T10:48:13;20.00;57.10
21348;DHT22;66030;53.582;9.746;2024-03-02T10:50:41;20.00;57.00
21348;DHT22;66030;53.582;9.746;2024-03-02T10:53:09;20.00;56.90
21348;DHT22;66030;53.582;9.746;2024-03-02T10:55:39;20.00;56.70
21348;DHT22;66030;53.582;9.746;2024-03-02T10:58:12;20.00;56.80
21348;DHT22;66030;53.582;9.746;2024-03-02T11:00:43;20.00;56.50
21348;DHT22;66030;53.582;9.746;2024-03-02T11:03:14;20.10;56.90
21348;DHT22;66030;53.582;9.746;2024-03-02T11:05:44;20.00;56.50
21348;DHT22;66030;53.582;9.746;2024-03-02T11:08:19;20.00;56.80
21348;DHT22;66030;53.582;9.746;2024-03-02T11:10:58;20.00;56.90
21348;DHT22;66030;53.582;9.746;2024-03-02T11:13:32;20.00;56.30
21348;DHT22;66030;53.582;9.746;2024-03-02T11:16:05;20.00;56.20
21348;DHT22;66030;53.582;9.746;2024-03-02T11:18:34;20.00;56.20
21348;DHT22;66030;53.582;9.746;2024-03-02T11:21:03;20.00;56.70
21348;DHT22;66030;53.582;9.746;2024-03-02T11:23:32;20.10;57.30
21348;DHT22;66030;53.582;9.746;2024-03-02T11:26:19;20.20;57.10
21348;DHT22;66030;53.582;9.746;2024-03-02T11:28:48;20.20;56.70
21348;DHT22;66030;53.582;9.746;2024-03-02T11:31:16;20.20;56.80
21348;DHT22;66030;53.582;9.746;2024-03-02T11:33:44;20.30;57.00
21348;DHT22;66030;53.582;9.746;2024-03-02T11:36:12;20.30;57.00
21348;DHT22;66030;53.582;9.746;2024-03-02T11:38:43;20.40;56.90
21348;DHT22;66030;53.582;9.746;2024-03-02T11:41:12;20.40;56.80
21348;DHT22;66030;53.582;9.746;2024-03-02T11:43:42;20.50;56.80
21348;DHT22;66030;53.582;9.746;2024-03-02T11:46:12;20.50;56.90
21348;DHT22;66030;53.582;9.746;2024-03-02T11:48:40;20.60;56.80
21348;DHT22;66030;53.582;9.746;2024-03-02T11:51:08;20.60;56.80
21348;DHT22;66030;53.582;9.746;2024-03-02T11:53:39;20.60;56.90
21348;DHT22;66030;53.582;9.746;2024-03-02T11:56:09;20.60;56.80
21348;DHT22;66030;53.582;9.746;2024-03-02T11:58:39;20.60;56.90
21348;DHT22;66030;53.582;9.746;2024-03-02T12:01:10;20.60;57.00
21348;DHT22;66030;53.582;9.746;2024-03-02T12:03:39;20.60;57.00
21348;DHT22;66030;53.582;9.746;2024-03-02T12:06:07;20.60;57.00
21348;DHT22;66030;53.582;9.746;2024-03-02T12:08:36;20.70;57.10
21348;DHT22;66030;53.582;9.746;2024-03-02T12:11:06;20.60;57.00
21348;DHT22;66030;53.582;9.746;2024-03-02T12:13:34;20.60;57.00
21348;DHT22;66030;53.582;9.746;2024-03-02T12:16:02;20.60;57.00
21348;DHT22;66030;53.582;9.746;2024-03-02T12:18:31;20.60;57.10
21348;DHT22;66030;53.582;9.746;2024-03-02T12:20:59;20.70;57.10
21348;DHT22;66030;53.582;9.746;2024-03-02T12:23:29;20.70;57.00
21348;DHT22;66030;53.582;9.746;2024-03-02T12:25:57;20.70;57.00
21348;DHT22;66030;53.582;9.746;2024-03-02T12:28:25;20.70;56.90
21348;DHT22;66030;53.582;9.746;2024-03-02T12:30:53;20.70;56.90
21348;DHT22;66030;53.582;9.746;2024-03-02T12:33:21;20.70;57.00
21348;DHT22;66030;53.582;9.746;2024-03-02T12:35:51;20.70;57.20
21348;DHT22;66030;53.582;9.746;2024-03-02T12:38:19;20.80;57.20
21348;DHT22;66030;53.582;9.746;2024-03-02T12:40:48;20.80;57.20
21348;DHT22;66030;53.582;9.746;2024-03-02T12:43:16;20.80;57.10
21348;DHT22;66030;53.582;9.746;2024-03-02T12:45:45;20.80;57.00
21348;DHT22;66030;53.582;9.746;2024-03-02T12:48:13;20.80;57.00
21348;DHT22;66030;53.582;9.746;2024-03-02T12:50:42;20.80;57.10
21348;DHT22;66030;53.582;9.746;2024-03-02T12:53:15;20.80;57.30
21348;DHT22;66030;53.582;9.746;2024-03-02T12:55:44;20.80;57.40
21348;DHT22;66030;53.582;9.746;2024-03-02T12:58:17;20.80;57.50
21348;DHT22;66030;53.582;9.746;2024-03-02T13:00:45;20.90;57.40
21348;DHT22;66030;53.582;9.746;2024-03-02T13:03:13;20.90;57.30
21348;DHT22;66030;53.582;9.746;2024-03-02T13:05:48;20.90;57.10
21348;DHT22;66030;53.582;9.746;2024-03-02T13:08:18;20.80;57.00
21348;DHT22;66030;53.582;9.746;2024-03-02T13:10:46;20.90;57.10
21348;DHT22;66030;53.582;9.746;2024-03-02T13:13:14;20.90;57.00
21348;DHT22;66030;53.582;9.746;2024-03-02T13:15:42;20.90;56.60
21348;DHT22;66030;53.582;9.746;2024-03-02T13:18:11;20.90;56.40
21348;DHT22;66030;53.582;9.746;2024-03-02T13:20:40;20.90;56.10
21348;DHT22;66030;53.582;9.746;2024-03-02T13:23:07;20.90;55.80
21348;DHT22;66030;53.582;9.746;2024-03-02T13:25:38;20.90;55.70
21348;DHT22;66030;53.582;9.746;2024-03-02T13:28:06;20.90;55.80
21348;DHT22;66030;53.582;9.746;2024-03-02T13:30:35;20.90;55.40
21348;DHT22;66030;53.582;9.746;2024-03-02T13:33:04;20.90;55.40
21348;DHT22;66030;53.582;9.746;2024-03-02T13:35:32;20.90;55.50
21348;DHT22;66030;53.582;9.746;2024-03-02T13:38:00;20.90;55.40
21348;DHT22;66030;53.582;9.746;2024-03-02T13:40:28;21.00;55.80
21348;DHT22;66030;53.582;9.746;2024-03-02T13:42:58;21.00;55.80
21348;DHT22;66030;53.582;9.746;2024-03-02T13:45:26;21.00;55.60
21348;DHT22;66030;53.582;9.746;2024-03-02T13:47:55;21.00;55.50
21348;DHT22;66030;53.582;9.746;2024-03-02T13:50:23;21.00;55.40
21348;DHT22;66030;53.582;9.746;2024-03-02T13:52:50;21.00;55.40
21348;DHT22;66030;53.582;9.746;2024-03-02T13:55:18;21.00;55.40
21348;DHT22;66030;53.582;9.746;2024-03-02T13:57:47;21.00;55.10
21348;DHT22;66030;53.582;9.746;2024-03-02T14:00:17;21.00;55.00
21348;DHT22;66030;53.582;9.746;2024-03-02T14:02:45;20.90;55.10
21348;DHT22;66030;53.582;9.746;2024-03-02T14:05:13;20.90;54.90
21348;DHT22;66030;53.582;9.746;2024-03-02T14:07:41;20.90;55.00
21348;DHT22;66030;53.582;9.746;2024-03-02T14:10:09;20.90;54.80
21348;DHT22;66030;53.582;9.746;2024-03-02T14:12:38;20.80;54.60
21348;DHT22;66030;53.582;9.746;2024-03-02T14:15:07;20.90;54.90
21348;DHT22;66030;53.582;9.746;2024-03-02T14:17:36;20.80;54.70
21348;DHT22;66030;53.582;9.746;2024-03-02T14:20:05;20.70;53.80
21348;DHT22;66030;53.582;9.746;2024-03-02T14:22:33;20.60;54.50
21348;DHT22;66030;53.582;9.746;2024-03-02T14:25:01;20.60;54.40
21348;DHT22;66030;53.582;9.746;2024-03-02T14:27:30;20.60;54.60
21348;DHT22;66030;53.582;9.746;2024-03-02T14:30:18;20.60;54.90
21348;DHT22;66030;53.582;9.746;2024-03-02T14:32:47;20.70;53.70
21348;DHT22;66030;53.582;9.746;2024-03-02T14:35:15;20.60;53.40
21348;DHT22;66030;53.582;9.746;2024-03-02T14:37:43;20.60;53.60
21348;DHT22;66030;53.582;9.746;2024-03-02T14:40:11;20.60;53.90
21348;DHT22;66030;53.582;9.746;2024-03-02T14:42:40;20.60;54.20
21348;DHT22;66030;53.582;9.746;2024-03-02T14:45:09;20.70;54.10
21348;DHT22;66030;53.582;9.746;2024-03-02T14:47:37;20.70;54.00
21348;DHT22;66030;53.582;9.746;2024-03-02T14:50:07;20.80;53.70
21348;DHT22;66030;53.582;9.746;2024-03-02T14:52:36;20.80;54.00
21348;DHT22;66030;53.582;9.746;2024-03-02T14:55:05;20.80;53.80
21348;DHT22;66030;53.582;9.746;2024-03-02T14:57:34;20.80;53.80
21348;DHT22;66030;53.582;9.746;2024-03-02T15:00:03;20.80;53.90
21348;DHT22;66030;53.582;9.746;2024-03-02T15:02:34;20.80;53.80
21348;DHT22;66030;53.582;9.746;2024-03-02T15:05:03;20.80;53.80
21348;DHT22;66030;53.582;9.746;2024-03-02T15:07:33;20.80;53.90
21348;DHT22;66030;53.582;9.746;2024-03-02T15:10:01;20.80;53.70
21348;DHT22;66030;53.582;9.746;2024-03-02T15:12:31;20.80;53.60
21348;DHT22;66030;53.582;9.746;2024-03-02T15:14:59;20.80;53.60
21348;DHT22;66030;53.582;9.746;2024-03-02T15:17:27;20.80;53.70
21348;DHT22;66030;53.582;9.746;2024-03-02T15:19:55;20.80;53.70
21348;DHT22;66030;53.582;9.746;2024-03-02T15:22:22;20.80;53.80
21348;DHT22;66030;53.582;9.746;2024-03-02T15:24:52;20.90;53.90
21348;DHT22;66030;53.582;9.746;2024-03-02T15:27:21;20.80;53.70
21348;DHT22;66030;53.582;9.746;2024-03-02T15:29:49;20.80;53.90
21348;DHT22;66030;53.582;9.746;2024-03-02T15:32:18;20.80;53.90
21348;DHT22;66030;53.582;9.746;2024-03-02T15:34:46;20.80;53.80
21348;DHT22;66030;53.582;9.746;2024-03-02T15:37:14;20.80;54.00
21348;DHT22;66030;53.582;9.746;2024-03-02T15:39:42;20.80;54.10
21348;DHT22;66030;53.582;9.746;2024-03-02T15:42:12;20.80;54.20